Time;durP1;ratioP1;P1;durP2;ratioP2;P2;SDS_P1;SDS_P2;PMS_P1;PMS_P2;Temp;Humidity;BMP_temperature;BMP_pressure;BME280_temperature;BME280_humidity;BME280_pressure;Samples;Min_cycle;Max_cycle;Signal;HPM_P1;HPM_P2
2023/05/30 00:02:20;;;;;;;1.23;1.10;;;10.80;99.90;;;;;;5047885;28;20049;-69
2023/05/30 00:04:45;;;;;;;0.93;0.85;;;10.80;99.90;;;;;;5037159;28;20406;-68
2023/05/30 00:07:11;;;;;;;0.75;0.75;;;10.80;99.90;;;;;;5049420;28;20048;-68
2023/05/30 00:09:37;;;;;;;2.20;1.25;;;10.90;99.90;;;;;;5047536;28;20394;-68
2023/05/30 00:12:03;;;;;;;1.50;1.40;;;10.90;99.90;;;;;;5064440;28;20040;-69
2023/05/30 00:14:28;;;;;;;0.80;0.80;;;10.90;99.90;;;;;;5055658;28;20073;-68
2023/05/30 00:16:56;;;;;;;0.50;0.50;;;10.90;99.90;;;;;;5060062;28;20040;-68
2023/05/30 00:19:22;;;;;;;1.38;1.27;;;10.90;99.90;;;;;;5055716;28;20037;-69
2023/05/30 00:21:48;;;;;;;1.25;1.25;;;10.90;99.90;;;;;;5056902;28;20449;-69
2023/05/30 00:24:13;;;;;;;1.52;1.42;;;10.90;99.90;;;;;;5045292;28;20079;-69
2023/05/30 00:26:39;;;;;;;0.88;0.77;;;10.90;99.90;;;;;;5049780;28;20049;-69
2023/05/30 00:29:05;;;;;;;2.65;1.25;;;10.80;99.90;;;;;;5054126;28;20481;-69
2023/05/30 00:31:30;;;;;;;1.27;1.05;;;10.90;99.90;;;;;;5052089;28;20143;-69
2023/05/30 00:33:57;;;;;;;0.68;0.68;;;10.90;99.90;;;;;;5054472;28;20132;-69
2023/05/30 00:36:23;;;;;;;1.27;0.95;;;10.90;99.90;;;;;;5051427;28;20068;-68
2023/05/30 00:38:48;;;;;;;1.05;1.05;;;10.90;99.90;;;;;;5050762;28;20529;-68
2023/05/30 00:41:14;;;;;;;0.63;0.63;;;10.90;99.90;;;;;;5047686;28;20067;-68
2023/05/30 00:43:40;;;;;;;0.50;0.50;;;10.90;99.90;;;;;;5053343;28;20079;-69
2023/05/30 00:46:07;;;;;;;0.82;0.82;;;10.90;99.90;;;;;;5052957;28;20127;-69
2023/05/30 00:48:34;;;;;;;0.53;0.53;;;10.80;99.90;;;;;;5052924;28;20110;-69
2023/05/30 00:51:00;;;;;;;0.60;0.60;;;10.90;99.90;;;;;;5057539;28;20059;-68
2023/05/30 00:53:27;;;;;;;0.82;0.82;;;10.90;99.90;;;;;;5051834;28;20094;-68
2023/05/30 00:55:53;;;;;;;4.68;1.27;;;11.00;99.90;;;;;;5046279;28;20505;-69
2023/05/30 00:58:21;;;;;;;0.75;0.75;;;11.00;99.90;;;;;;5046346;28;20497;-69
2023/05/30 01:00:47;;;;;;;0.55;0.55;;;11.00;99.90;;;;;;5051689;28;20070;-69
2023/05/30 01:03:15;;;;;;;2.80;2.05;;;11.00;99.90;;;;;;5057275;28;20600;-69
2023/05/30 01:05:43;;;;;;;0.55;0.55;;;11.00;99.90;;;;;;5054471;28;20045;-69
2023/05/30 01:08:10;;;;;;;0.80;0.80;;;11.00;99.90;;;;;;5053280;28;20040;-68
2023/05/30 01:10:37;;;;;;;0.53;0.53;;;11.00;99.90;;;;;;5050768;28;20037;-69
2023/05/30 01:13:43;;;;;;;1.15;1.15;;;11.00;99.90;;;;;;5049469;28;20090;-69
2023/05/30 01:16:18;;;;;;;4.50;1.05;;;11.00;99.90;;;;;;5052170;28;20061;-69
2023/05/30 01:18:55;;;;;;;0.50;0.50;;;11.00;99.90;;;;;;5054131;28;20465;-68
2023/05/30 01:21:22;;;;;;;1.52;1.45;;;10.90;99.90;;;;;;5044632;28;20386;-69
2023/05/30 01:24:05;;;;;;;1.70;1.55;;;10.90;99.90;;;;;;5053260;28;20136;-69
2023/05/30 01:27:03;;;;;;;0.70;0.70;;;10.90;99.90;;;;;;5053979;28;20049;-68
2023/05/30 01:29:31;;;;;;;1.38;1.38;;;10.80;99.90;;;;;;5049404;28;20582;-68
2023/05/30 01:31:57;;;;;;;;;;;10.80;99.90;;;;;;5046033;28;20079;-68
2023/05/30 01:34:23;;;;;;;1.05;1.05;;;10.80;99.90;;;;;;5054512;28;20425;-69
2023/05/30 01:36:48;;;;;;;0.50;0.50;;;10.90;99.90;;;;;;5053371;28;20128;-68
2023/05/30 01:39:14;;;;;;;1.42;1.30;;;10.80;99.90;;;;;;5050028;28;20036;-69
2023/05/30 01:41:55;;;;;;;0.50;0.50;;;10.90;99.90;;;;;;5048877;28;20040;-69
2023/05/30 01:44:33;;;;;;;0.85;0.85;;;10.90;99.90;;;;;;5054725;28;20170;-68
2023/05/30 01:47:19;;;;;;;0.98;0.98;;;10.90;99.90;;;;;;5053533;28;20056;-68
2023/05/30 01:49:59;;;;;;;2.20;1.33;;;10.90;99.90;;;;;;5043487;28;20060;-68
2023/05/30 01:52:33;;;;;;;0.52;0.50;;;10.90;99.90;;;;;;5050903;28;20091;-68
2023/05/30 01:55:04;;;;;;;1.25;0.80;;;10.90;99.90;;;;;;5046462;28;20061;-69
2023/05/30 01:57:30;;;;;;;0.47;0.47;;;11.00;99.90;;;;;;5054316;28;20460;-68
2023/05/30 01:59:58;;;;;;;1.00;0.98;;;10.90;99.90;;;;;;5055219;28;20486;-68
2023/05/30 02:02:24;;;;;;;0.82;0.82;;;10.90;99.90;;;;;;5051100;28;20040;-69
2023/05/30 02:04:50;;;;;;;1.40;1.15;;;10.90;99.90;;;;;;5049582;28;20494;-68
2023/05/30 02:07:16;;;;;;;0.55;0.55;;;10.90;99.90;;;;;;5051212;28;20052;-69
2023/05/30 02:09:42;;;;;;;4.55;0.93;;;10.90;99.90;;;;;;5052543;28;20080;-69
2023/05/30 02:12:08;;;;;;;0.43;0.43;;;10.90;99.90;;;;;;5051545;28;20068;-68
2023/05/30 02:14:35;;;;;;;0.60;0.60;;;10.90;99.90;;;;;;5054285;28;20482;-69
2023/05/30 02:17:02;;;;;;;0.60;0.60;;;10.90;99.90;;;;;;5057539;28;20508;-69
2023/05/30 02:19:28;;;;;;;0.40;0.40;;;10.90;99.90;;;;;;5052452;28;20049;-68
2023/05/30 02:21:54;;;;;;;0.40;0.40;;;10.90;99.90;;;;;;5045836;28;20049;-69
2023/05/30 02:24:21;;;;;;;0.47;0.47;;;11.00;99.90;;;;;;5049737;28;20405;-68
2023/05/30 02:26:47;;;;;;;0.40;0.40;;;10.90;99.90;;;;;;5053450;28;20127;-68
2023/05/30 02:29:12;;;;;;;0.80;0.57;;;11.00;99.90;;;;;;5057938;28;20124;-68
2023/05/30 02:31:38;;;;;;;0.98;0.90;;;10.90;99.90;;;;;;5024755;28;20504;-69
2023/05/30 02:34:04;;;;;;;2.15;0.82;;;11.00;99.90;;;;;;5048967;28;20045;-69
2023/05/30 02:36:30;;;;;;;8.50;1.20;;;11.00;99.90;;;;;;5045404;28;20095;-69
2023/05/30 02:38:56;;;;;;;0.50;0.50;;;11.00;99.90;;;;;;5053835;28;20113;-68
2023/05/30 02:41:22;;;;;;;0.63;0.63;;;11.00;99.90;;;;;;5049985;28;20053;-69
2023/05/30 02:43:48;;;;;;;0.50;0.50;;;11.00;99.90;;;;;;5048358;28;20045;-69
2023/05/30 02:46:14;;;;;;;0.40;0.40;;;11.00;99.90;;;;;;5055597;28;20045;-69
2023/05/30 02:48:39;;;;;;;0.30;0.30;;;11.00;99.90;;;;;;5048009;28;20049;-69
2023/05/30 02:51:05;;;;;;;0.63;0.60;;;11.00;99.90;;;;;;5051347;28;20757;-68
2023/05/30 02:53:30;;;;;;;1.30;1.23;;;11.00;99.90;;;;;;5052577;28;20053;-68
2023/05/30 02:55:56;;;;;;;0.88;0.88;;;11.00;99.90;;;;;;5050527;28;20064;-68
2023/05/30 02:58:22;;;;;;;0.68;0.68;;;11.00;99.90;;;;;;5053548;28;20055;-69
2023/05/30 03:00:49;;;;;;;0.52;0.52;;;11.00;99.90;;;;;;5047940;28;20095;-68
2023/05/30 03:03:14;;;;;;;0.77;0.77;;;11.00;99.90;;;;;;5056994;28;20110;-68
2023/05/30 03:05:41;;;;;;;0.55;0.55;;;11.00;99.90;;;;;;5049304;28;20049;-69
2023/05/30 03:08:07;;;;;;;1.15;1.05;;;11.00;99.90;;;;;;5049843;28;20064;-69
2023/05/30 03:10:33;;;;;;;1.17;1.17;;;11.00;99.90;;;;;;5048668;28;20048;-69
2023/05/30 03:12:58;;;;;;;0.60;0.60;;;11.00;99.90;;;;;;5046755;28;20521;-69
2023/05/30 03:15:24;;;;;;;1.80;1.10;;;10.90;99.90;;;;;;5045408;28;20041;-69
2023/05/30 03:17:49;;;;;;;1.45;1.27;;;10.80;99.90;;;;;;5040308;28;20053;-69
2023/05/30 03:20:16;;;;;;;2.22;2.03;;;10.80;99.90;;;;;;5055905;28;20044;-69
2023/05/30 03:22:42;;;;;;;1.65;0.68;;;10.80;99.90;;;;;;5047384;28;20116;-69
2023/05/30 03:25:08;;;;;;;0.95;0.90;;;10.80;99.90;;;;;;5055832;28;20041;-69
2023/05/30 03:27:34;;;;;;;0.30;0.30;;;10.80;99.90;;;;;;5050362;28;20049;-69
2023/05/30 03:30:02;;;;;;;0.50;0.50;;;10.80;99.90;;;;;;5048688;28;20529;-68
2023/05/30 03:32:28;;;;;;;0.50;0.50;;;10.80;99.90;;;;;;5041426;28;20038;-69
2023/05/30 03:34:54;;;;;;;0.40;0.40;;;10.90;99.90;;;;;;5049950;28;20041;-68
2023/05/30 03:37:20;;;;;;;0.75;0.75;;;10.90;99.90;;;;;;5048460;28;20045;-68
2023/05/30 03:39:46;;;;;;;0.55;0.55;;;10.90;99.90;;;;;;5047109;28;20116;-68
2023/05/30 03:42:12;;;;;;;1.17;0.90;;;10.90;99.90;;;;;;5050400;28;20048;-68
2023/05/30 03:44:38;;;;;;;1.27;1.27;;;11.00;99.90;;;;;;5054926;28;20115;-68
2023/05/30 03:47:04;;;;;;;0.40;0.40;;;11.00;99.90;;;;;;5051013;28;20712;-68
2023/05/30 03:49:30;;;;;;;0.43;0.43;;;11.00;99.90;;;;;;5049437;28;20041;-68
2023/05/30 03:51:56;;;;;;;0.60;0.60;;;11.00;99.90;;;;;;5048747;28;20051;-68
2023/05/30 03:54:21;;;;;;;1.15;1.05;;;11.00;99.90;;;;;;5056424;28;20049;-68
2023/05/30 03:56:47;;;;;;;0.30;0.30;;;11.00;99.90;;;;;;5049643;28;20049;-68
2023/05/30 03:59:15;;;;;;;0.80;0.63;;;11.10;99.90;;;;;;5054118;28;20040;-68
2023/05/30 04:01:40;;;;;;;0.65;0.65;;;11.10;99.90;;;;;;5049622;28;20437;-68
2023/05/30 04:04:06;;;;;;;1.00;1.00;;;11.10;99.90;;;;;;5052896;28;20048;-68
2023/05/30 04:06:34;;;;;;;0.40;0.40;;;11.20;99.90;;;;;;5053578;28;20239;-69
2023/05/30 04:09:02;;;;;;;0.77;0.77;;;11.20;99.90;;;;;;5048507;28;20087;-68
2023/05/30 04:11:28;;;;;;;0.95;0.95;;;11.20;99.90;;;;;;5045421;28;20044;-69
2023/05/30 04:13:55;;;;;;;0.60;0.60;;;11.20;99.90;;;;;;5055470;28;20099;-68
2023/05/30 04:16:21;;;;;;;0.52;0.52;;;11.20;99.90;;;;;;5057536;28;20085;-68
2023/05/30 04:18:47;;;;;;;0.40;0.40;;;11.30;99.90;;;;;;5046138;28;20037;-68
2023/05/30 04:21:13;;;;;;;0.45;0.45;;;11.30;99.90;;;;;;5058429;28;20052;-68
2023/05/30 04:23:42;;;;;;;0.70;0.70;;;11.40;99.90;;;;;;5055522;28;20040;-68
2023/05/30 04:26:10;;;;;;;0.60;0.60;;;11.40;99.90;;;;;;5048702;28;20174;-68
2023/05/30 04:28:39;;;;;;;0.90;0.90;;;11.40;99.90;;;;;;5054450;28;20052;-68
2023/05/30 04:31:08;;;;;;;0.40;0.40;;;11.40;99.90;;;;;;5050362;28;20111;-68
2023/05/30 04:33:35;;;;;;;0.50;0.50;;;11.50;99.90;;;;;;5052930;28;20052;-68
2023/05/30 04:36:06;;;;;;;0.30;0.30;;;11.50;99.90;;;;;;5051222;28;20037;-68
2023/05/30 04:38:34;;;;;;;0.63;0.63;;;11.50;99.90;;;;;;5053895;28;20041;-68
2023/05/30 04:41:04;;;;;;;0.55;0.55;;;11.60;99.90;;;;;;5037202;28;20134;-68
2023/05/30 04:43:30;;;;;;;1.05;0.57;;;11.60;99.90;;;;;;5055923;28;20512;-68
2023/05/30 04:46:00;;;;;;;0.30;0.30;;;11.60;99.90;;;;;;5059975;28;20037;-68
2023/05/30 04:48:28;;;;;;;0.82;0.82;;;11.70;99.90;;;;;;5054848;28;20486;-68
2023/05/30 04:50:54;;;;;;;0.38;0.30;;;11.70;99.90;;;;;;5056179;28;20124;-68
2023/05/30 04:53:20;;;;;;;0.73;0.40;;;11.70;99.90;;;;;;5054017;28;20211;-68
2023/05/30 04:55:46;;;;;;;0.50;0.50;;;11.70;99.90;;;;;;5049579;28;20052;-68
2023/05/30 04:58:13;;;;;;;0.43;0.43;;;11.80;99.90;;;;;;5053895;28;20037;-68
2023/05/30 05:00:40;;;;;;;1.77;0.77;;;11.80;99.90;;;;;;5055388;28;20068;-69
2023/05/30 05:03:07;;;;;;;0.30;0.30;;;11.70;99.90;;;;;;5052141;28;20059;-68
2023/05/30 05:05:34;;;;;;;0.40;0.40;;;11.80;99.90;;;;;;5049620;28;20456;-68
2023/05/30 05:08:00;;;;;;;0.50;0.50;;;11.90;99.90;;;;;;5054802;28;20072;-68
2023/05/30 05:10:26;;;;;;;0.35;0.35;;;11.90;99.90;;;;;;5044329;28;20512;-68
2023/05/30 05:12:52;;;;;;;0.75;0.75;;;11.90;99.90;;;;;;5053802;28;20453;-68
2023/05/30 05:15:17;;;;;;;0.45;0.45;;;11.90;99.90;;;;;;5051968;28;20033;-68
2023/05/30 05:17:43;;;;;;;0.60;0.60;;;12.00;99.90;;;;;;5054594;28;20116;-68
2023/05/30 05:20:10;;;;;;;0.28;0.28;;;12.00;99.90;;;;;;5049700;28;20091;-68
2023/05/30 05:22:35;;;;;;;1.00;1.00;;;12.00;99.90;;;;;;5054287;28;20045;-68
2023/05/30 05:25:03;;;;;;;1.08;1.08;;;12.10;99.90;;;;;;5050610;28;20449;-68
2023/05/30 05:27:29;;;;;;;0.85;0.85;;;12.10;99.90;;;;;;5051987;28;20040;-68
2023/05/30 05:29:54;;;;;;;0.63;0.63;;;12.20;99.90;;;;;;5048029;28;20048;-68
2023/05/30 05:32:20;;;;;;;0.50;0.50;;;12.20;99.90;;;;;;5054569;28;20081;-68
2023/05/30 05:34:46;;;;;;;0.60;0.60;;;12.20;99.90;;;;;;5052884;28;20148;-68
2023/05/30 05:37:12;;;;;;;0.60;0.60;;;12.20;99.90;;;;;;5055904;28;20060;-68
2023/05/30 05:39:38;;;;;;;0.82;0.82;;;12.20;99.90;;;;;;5051517;28;20406;-68
2023/05/30 05:42:04;;;;;;;0.70;0.70;;;12.20;99.90;;;;;;5048857;28;20099;-68
2023/05/30 05:44:30;;;;;;;0.77;0.77;;;12.20;99.90;;;;;;5058576;28;20115;-68
2023/05/30 05:46:56;;;;;;;3.60;0.80;;;12.20;99.90;;;;;;5049366;28;20457;-68
2023/05/30 05:49:22;;;;;;;1.25;0.93;;;12.20;99.90;;;;;;5046728;28;20036;-68
2023/05/30 05:51:48;;;;;;;0.45;0.45;;;12.20;99.90;;;;;;5049110;28;20512;-68
2023/05/30 05:54:14;;;;;;;0.70;0.63;;;12.20;99.90;;;;;;5053113;28;20061;-68
2023/05/30 05:56:40;;;;;;;0.80;0.80;;;12.20;99.90;;;;;;5050776;28;20530;-69
2023/05/30 05:59:05;;;;;;;1.95;1.08;;;12.10;99.90;;;;;;5040302;28;20143;-69
2023/05/30 06:01:31;;;;;;;1.15;0.60;;;12.10;99.90;;;;;;5050632;28;20501;-69
2023/05/30 06:04:00;;;;;;;0.80;0.80;;;12.10;99.90;;;;;;5044769;28;20051;-69
2023/05/30 06:06:26;;;;;;;0.50;0.50;;;12.10;99.90;;;;;;5053940;28;20056;-69
2023/05/30 06:08:51;;;;;;;0.65;0.65;;;12.20;99.90;;;;;;5047476;28;20406;-69
2023/05/30 06:11:17;;;;;;;0.50;0.50;;;12.20;99.90;;;;;;5053960;28;20049;-69
2023/05/30 06:13:43;;;;;;;0.73;0.73;;;12.20;99.90;;;;;;5057297;28;20048;-68
2023/05/30 06:16:08;;;;;;;0.80;0.80;;;12.20;99.90;;;;;;5050138;28;20049;-68
2023/05/30 06:18:34;;;;;;;0.90;0.75;;;12.20;99.90;;;;;;5050686;28;20041;-68
2023/05/30 06:21:00;;;;;;;0.57;0.57;;;12.20;99.90;;;;;;5045241;28;20080;-68
2023/05/30 06:23:27;;;;;;;0.70;0.70;;;12.20;99.90;;;;;;5049999;28;20040;-68
2023/05/30 06:25:52;;;;;;;0.70;0.70;;;12.10;99.90;;;;;;5048603;28;20049;-68
2023/05/30 06:28:18;;;;;;;0.60;0.60;;;12.10;99.90;;;;;;5049815;28;20614;-69
2023/05/30 06:30:43;;;;;;;8.90;0.85;;;12.20;99.90;;;;;;5052134;28;20126;-68
2023/05/30 06:33:10;;;;;;;0.40;0.40;;;12.20;99.90;;;;;;5053928;28;20045;-69
2023/05/30 06:35:36;;;;;;;0.30;0.30;;;12.20;99.90;;;;;;5044772;28;20403;-68
2023/05/30 06:38:01;;;;;;;1.27;1.25;;;12.30;99.90;;;;;;5041879;28;20037;-68
2023/05/30 06:40:27;;;;;;;1.05;0.70;;;12.30;99.90;;;;;;5048073;28;20044;-69
2023/05/30 06:42:53;;;;;;;0.57;0.57;;;12.30;99.90;;;;;;5048850;28;20052;-69
2023/05/30 06:45:18;;;;;;;1.38;1.27;;;12.40;99.90;;;;;;5048200;28;20076;-68
2023/05/30 06:47:44;;;;;;;0.80;0.80;;;12.30;99.90;;;;;;5052562;28;20044;-68
2023/05/30 06:50:10;;;;;;;0.60;0.60;;;12.40;99.90;;;;;;5042357;28;20045;-68
2023/05/30 06:52:35;;;;;;;0.77;0.77;;;12.40;99.90;;;;;;5049434;28;20124;-68
2023/05/30 06:55:01;;;;;;;0.75;0.75;;;12.40;99.90;;;;;;5048438;28;20088;-68
2023/05/30 06:57:27;;;;;;;0.50;0.50;;;12.40;99.90;;;;;;5046775;28;20551;-68
2023/05/30 06:59:52;;;;;;;1.98;1.40;;;12.40;99.90;;;;;;5044673;28;20122;-68
2023/05/30 07:02:18;;;;;;;0.60;0.60;;;12.50;99.90;;;;;;5048270;28;20053;-68
2023/05/30 07:04:44;;;;;;;1.05;0.57;;;12.40;99.90;;;;;;5047129;28;20093;-68
2023/05/30 07:07:09;;;;;;;0.68;0.68;;;12.40;99.90;;;;;;5047505;28;20362;-68
2023/05/30 07:09:35;;;;;;;0.90;0.50;;;12.30;99.90;;;;;;5044094;28;20072;-68
2023/05/30 07:12:02;;;;;;;1.55;0.80;;;12.40;99.90;;;;;;5046793;28;20114;-68
2023/05/30 07:14:27;;;;;;;1.02;1.02;;;12.50;99.90;;;;;;5051722;28;20052;-68
2023/05/30 07:16:53;;;;;;;0.47;0.47;;;12.50;99.90;;;;;;5051094;28;20056;-68
2023/05/30 07:19:18;;;;;;;1.48;1.38;;;12.50;99.90;;;;;;5053153;28;20474;-68
2023/05/30 07:21:44;;;;;;;1.10;1.00;;;12.50;99.90;;;;;;5049420;28;20119;-68
2023/05/30 07:24:10;;;;;;;0.40;0.40;;;12.50;99.90;;;;;;5047273;28;20094;-68
2023/05/30 07:26:36;;;;;;;0.95;0.95;;;12.50;99.90;;;;;;5048601;28;20055;-69
2023/05/30 07:29:02;;;;;;;0.75;0.73;;;12.50;99.90;;;;;;5051876;28;20513;-68
2023/05/30 07:31:27;;;;;;;0.60;0.60;;;12.50;99.90;;;;;;5053971;28;20041;-68
2023/05/30 07:33:54;;;;;;;0.52;0.52;;;12.40;99.90;;;;;;5056328;28;20041;-68
2023/05/30 07:36:20;;;;;;;0.88;0.88;;;12.40;99.90;;;;;;5049452;28;20053;-68
2023/05/30 07:38:45;;;;;;;1.02;0.50;;;12.40;99.90;;;;;;5051479;28;20410;-68
2023/05/30 07:41:11;;;;;;;0.77;0.50;;;12.40;99.90;;;;;;5049084;28;20084;-68
2023/05/30 07:43:37;;;;;;;2.15;1.90;;;12.40;99.90;;;;;;5048915;28;20037;-68
2023/05/30 07:46:02;;;;;;;0.90;0.90;;;12.50;99.90;;;;;;5044348;28;20048;-69
2023/05/30 07:48:28;;;;;;;0.57;0.57;;;12.50;99.90;;;;;;5049363;28;20048;-69
2023/05/30 07:50:53;;;;;;;1.65;1.02;;;12.50;99.90;;;;;;5053552;28;20055;-69
2023/05/30 07:53:19;;;;;;;0.65;0.65;;;12.60;99.90;;;;;;5040939;28;20864;-68
2023/05/30 07:55:46;;;;;;;0.98;0.85;;;12.60;99.90;;;;;;5057340;28;20040;-68
2023/05/30 07:58:11;;;;;;;0.95;0.95;;;12.70;99.90;;;;;;5050828;28;20060;-68
2023/05/30 08:00:38;;;;;;;0.55;0.55;;;12.70;99.90;;;;;;5045840;28;20025;-68
2023/05/30 08:03:04;;;;;;;0.43;0.43;;;12.70;99.90;;;;;;5046830;28;20079;-68
2023/05/30 08:05:29;;;;;;;0.38;0.38;;;12.80;99.90;;;;;;5052603;28;20037;-68
2023/05/30 08:07:55;;;;;;;2.15;1.05;;;12.80;99.90;;;;;;5052466;28;20053;-68
2023/05/30 08:10:21;;;;;;;0.98;0.98;;;12.90;99.90;;;;;;5047711;28;20516;-68
2023/05/30 08:12:46;;;;;;;0.55;0.55;;;12.90;99.90;;;;;;5048909;28;20424;-68
2023/05/30 08:15:12;;;;;;;0.68;0.52;;;12.80;99.90;;;;;;5054426;28;20068;-68
2023/05/30 08:17:40;;;;;;;0.32;0.32;;;12.80;99.90;;;;;;5050550;28;20089;-68
2023/05/30 08:20:12;;;;;;;3.30;1.08;;;12.90;99.90;;;;;;5046829;28;20120;-68
2023/05/30 08:22:38;;;;;;;1.08;1.08;;;12.80;99.90;;;;;;5046940;28;20156;-68
2023/05/30 08:25:04;;;;;;;0.35;0.35;;;12.90;99.90;;;;;;5048271;28;20147;-68
2023/05/30 08:27:31;;;;;;;0.75;0.70;;;12.90;99.90;;;;;;5048361;28;20057;-68
2023/05/30 08:29:57;;;;;;;0.80;0.80;;;13.00;99.90;;;;;;5045236;28;20080;-68
2023/05/30 08:32:23;;;;;;;0.45;0.45;;;13.00;99.90;;;;;;5056628;28;20122;-68
2023/05/30 08:34:48;;;;;;;0.50;0.50;;;13.00;99.90;;;;;;5054584;28;20149;-68
2023/05/30 08:37:14;;;;;;;0.95;0.88;;;13.00;99.90;;;;;;5049814;28;20079;-68
2023/05/30 08:39:41;;;;;;;0.75;0.75;;;13.10;99.90;;;;;;5057879;28;20445;-68
2023/05/30 08:42:07;;;;;;;0.30;0.30;;;13.20;99.90;;;;;;5058748;28;20076;-68
2023/05/30 08:44:33;;;;;;;0.88;0.88;;;13.20;99.90;;;;;;5053201;28;20120;-68
2023/05/30 08:47:00;;;;;;;0.70;0.70;;;13.30;99.90;;;;;;5049823;28;20056;-68
2023/05/30 08:49:31;;;;;;;0.88;0.88;;;13.30;99.90;;;;;;5053515;28;20090;-68
2023/05/30 08:51:58;;;;;;;0.70;0.70;;;13.30;99.90;;;;;;5048881;28;20490;-68
2023/05/30 08:54:28;;;;;;;0.50;0.50;;;13.40;99.90;;;;;;5050643;28;20502;-68
2023/05/30 08:57:02;;;;;;;0.60;0.60;;;13.40;99.90;;;;;;5059031;28;20063;-68
2023/05/30 08:59:28;;;;;;;1.13;0.68;;;13.40;99.90;;;;;;5055397;28;20044;-68
2023/05/30 09:01:56;;;;;;;0.90;0.90;;;13.40;99.90;;;;;;5052731;28;20079;-69
2023/05/30 09:04:23;;;;;;;1.23;1.15;;;13.40;99.90;;;;;;5056480;28;20041;-69
2023/05/30 09:06:50;;;;;;;0.30;0.30;;;13.40;99.90;;;;;;5052906;28;20036;-69
2023/05/30 09:09:17;;;;;;;0.75;0.75;;;13.40;99.90;;;;;;5037548;28;20505;-69
2023/05/30 09:11:43;;;;;;;0.50;0.50;;;13.40;99.90;;;;;;5052417;28;20748;-69
2023/05/30 09:14:08;;;;;;;0.50;0.47;;;13.30;99.90;;;;;;5051383;28;20064;-69
2023/05/30 09:16:35;;;;;;;0.63;0.63;;;13.30;99.90;;;;;;5052954;28;20037;-69
2023/05/30 09:19:02;;;;;;;0.50;0.50;;;13.20;99.90;;;;;;5061096;28;20099;-73
2023/05/30 09:21:30;;;;;;;0.30;0.30;;;13.20;99.90;;;;;;5052450;28;20075;-72
2023/05/30 09:24:04;;;;;;;0.45;0.45;;;13.20;99.90;;;;;;5051980;28;20056;-71
2023/05/30 09:26:30;;;;;;;0.60;0.60;;;13.20;99.90;;;;;;5042961;28;20057;-71
2023/05/30 09:28:55;;;;;;;1.00;1.00;;;13.30;99.90;;;;;;5052563;28;20063;-72
2023/05/30 09:31:22;;;;;;;0.50;0.50;;;13.20;99.90;;;;;;5049060;28;20045;-71
2023/05/30 09:33:52;;;;;;;1.38;0.95;;;13.10;99.90;;;;;;5055055;28;20102;-72
2023/05/30 09:36:24;;;;;;;0.40;0.40;;;13.10;99.90;;;;;;5058805;28;20135;-72
2023/05/30 09:39:05;;;;;;;0.40;0.40;;;13.10;99.90;;;;;;5051660;28;20044;-71
2023/05/30 09:41:31;;;;;;;0.50;0.50;;;13.20;99.90;;;;;;5049220;28;20049;-72
2023/05/30 09:43:58;;;;;;;0.55;0.55;;;13.40;99.90;;;;;;5048459;28;20049;-72
2023/05/30 09:46:28;;;;;;;0.65;0.65;;;13.40;99.90;;;;;;5044206;28;20025;-71
2023/05/30 09:48:55;;;;;;;0.60;0.60;;;13.60;99.90;;;;;;5051302;28;20057;-72
2023/05/30 09:51:25;;;;;;;0.82;0.82;;;13.60;99.90;;;;;;5055496;28;20155;-71
2023/05/30 09:53:56;;;;;;;0.40;0.40;;;13.60;99.90;;;;;;5047861;28;20110;-72
2023/05/30 09:56:35;;;;;;;0.50;0.50;;;13.50;99.90;;;;;;5055648;28;20048;-72
2023/05/30 09:59:06;;;;;;;0.40;0.40;;;13.60;99.90;;;;;;5045578;28;20048;-71
2023/05/30 10:01:40;;;;;;;0.60;0.60;;;13.50;99.90;;;;;;5049854;28;20045;-71
2023/05/30 10:04:27;;;;;;;0.20;0.20;;;13.50;99.90;;;;;;5053571;28;20045;-71
2023/05/30 10:06:54;;;;;;;0.40;0.40;;;13.50;99.90;;;;;;5043751;28;20041;-72
2023/05/30 10:09:21;;;;;;;0.40;0.40;;;13.50;99.90;;;;;;5048180;28;20159;-71
2023/05/30 10:11:47;;;;;;;2.50;0.73;;;13.50;99.90;;;;;;5054645;28;20044;-70
2023/05/30 10:14:13;;;;;;;0.68;0.68;;;13.60;99.90;;;;;;5048671;28;20312;-71
2023/05/30 10:16:58;;;;;;;0.50;0.50;;;13.70;99.90;;;;;;5057113;28;20132;-70
2023/05/30 10:19:53;;;;;;;0.55;0.55;;;13.80;99.90;;;;;;5043981;28;20051;-71
2023/05/30 10:22:21;;;;;;;0.60;0.60;;;13.90;99.90;;;;;;5045986;28;20060;-71
2023/05/30 10:24:48;;;;;;;0.35;0.35;;;14.10;99.90;;;;;;5047385;28;20079;-70
2023/05/30 10:27:27;;;;;;;0.50;0.50;;;14.20;99.90;;;;;;5026444;28;20053;-71
2023/05/30 10:30:07;;;;;;;0.63;0.63;;;14.40;99.90;;;;;;5052048;28;20343;-71
2023/05/30 10:32:38;;;;;;;0.73;0.73;;;14.40;99.90;;;;;;5045857;28;20052;-71
2023/05/30 10:35:15;;;;;;;0.35;0.35;;;14.50;99.90;;;;;;5043969;28;20041;-71
2023/05/30 10:37:41;;;;;;;0.50;0.50;;;14.60;99.90;;;;;;5041491;28;20052;-71
2023/05/30 10:40:35;;;;;;;0.40;0.40;;;14.50;99.90;;;;;;5048154;28;20486;-71
2023/05/30 10:43:07;;;;;;;0.38;0.38;;;14.50;99.90;;;;;;5046079;28;20064;-71
2023/05/30 10:46:00;;;;;;;0.40;0.40;;;14.50;99.90;;;;;;5048570;28;20057;-70
2023/05/30 10:48:50;;;;;;;1.08;1.08;;;14.50;99.90;;;;;;5051411;28;20515;-71
2023/05/30 10:51:16;;;;;;;0.50;0.50;;;14.40;99.90;;;;;;5051714;28;20048;-71
2023/05/30 10:53:47;;;;;;;0.80;0.80;;;14.30;99.90;;;;;;5045715;28;20053;-71
2023/05/30 10:56:40;;;;;;;0.40;0.40;;;14.30;99.90;;;;;;5048933;28;20049;-71
2023/05/30 10:59:18;;;;;;;0.70;0.70;;;14.00;99.90;;;;;;5048493;28;20079;-70
2023/05/30 11:02:02;;;;;;;1.30;0.70;;;13.80;99.90;;;;;;5051491;28;20056;-70
2023/05/30 11:04:38;;;;;;;0.55;0.55;;;13.70;99.90;;;;;;5042316;28;20409;-71
2023/05/30 11:07:05;;;;;;;0.55;0.55;;;13.70;99.90;;;;;;5050032;28;20045;-71
2023/05/30 11:09:38;;;;;;;3.55;1.40;;;13.60;99.90;;;;;;5053092;28;20413;-71
2023/05/30 11:12:06;;;;;;;0.77;0.77;;;13.60;99.90;;;;;;5041451;28;20037;-71
2023/05/30 11:14:35;;;;;;;1.48;1.40;;;13.60;99.90;;;;;;5051147;28;20430;-70
2023/05/30 11:17:01;;;;;;;0.85;0.85;;;13.50;99.90;;;;;;5049338;28;20414;-71
2023/05/30 11:19:38;;;;;;;0.43;0.43;;;13.50;99.90;;;;;;5050346;28;20049;-71
2023/05/30 11:22:13;;;;;;;0.60;0.60;;;13.50;99.90;;;;;;5055892;28;20079;-70
2023/05/30 11:24:40;;;;;;;0.90;0.90;;;13.60;99.90;;;;;;5049672;28;20040;-71
2023/05/30 11:27:15;;;;;;;0.57;0.57;;;13.70;99.90;;;;;;5041731;28;20060;-71
2023/05/30 11:29:43;;;;;;;0.50;0.50;;;13.80;99.90;;;;;;5045216;28;20045;-71
2023/05/30 11:32:11;;;;;;;0.73;0.73;;;14.00;99.90;;;;;;5047377;28;20045;-71
2023/05/30 11:34:37;;;;;;;0.43;0.43;;;14.00;99.90;;;;;;5052051;28;20125;-71
2023/05/30 11:37:04;;;;;;;3.03;1.25;;;14.10;99.90;;;;;;5052178;28;20412;-71
2023/05/30 11:39:37;;;;;;;0.70;0.70;;;14.30;99.90;;;;;;5050909;28;20041;-71
2023/05/30 11:42:03;;;;;;;0.90;0.90;;;14.30;99.90;;;;;;5043526;28;20037;-71
2023/05/30 11:44:32;;;;;;;0.52;0.52;;;14.40;99.90;;;;;;5047866;28;20087;-72
2023/05/30 11:46:59;;;;;;;1.10;0.70;;;14.50;99.90;;;;;;5052384;28;20045;-72
2023/05/30 11:49:25;;;;;;;1.30;0.80;;;14.40;99.90;;;;;;5050100;28;20049;-72
2023/05/30 11:51:52;;;;;;;1.70;1.60;;;14.40;99.90;;;;;;5052688;28;20063;-72
2023/05/30 11:54:18;;;;;;;0.40;0.40;;;14.50;99.90;;;;;;5048049;28;20053;-72
2023/05/30 11:56:44;;;;;;;0.57;0.57;;;14.50;99.90;;;;;;5045931;28;20528;-72
2023/05/30 11:59:10;;;;;;;0.40;0.40;;;14.50;99.90;;;;;;5049153;28;20056;-72
2023/05/30 12:01:36;;;;;;;0.70;0.70;;;14.60;99.90;;;;;;5045245;28;20052;-72
2023/05/30 12:04:03;;;;;;;0.60;0.60;;;14.60;99.90;;;;;;5054390;28;20466;-72
2023/05/30 12:06:31;;;;;;;0.77;0.70;;;14.60;99.90;;;;;;5053909;28;20044;-72
2023/05/30 12:08:57;;;;;;;0.40;0.40;;;14.50;99.90;;;;;;5033045;28;20048;-72
2023/05/30 12:11:23;;;;;;;0.60;0.60;;;14.60;99.90;;;;;;5055607;28;20040;-72
2023/05/30 12:13:54;;;;;;;0.47;0.47;;;14.70;99.90;;;;;;5056603;28;20051;-72
2023/05/30 12:16:19;;;;;;;0.57;0.55;;;14.80;99.90;;;;;;5050416;28;20041;-73
2023/05/30 12:18:46;;;;;;;0.95;0.95;;;14.80;99.90;;;;;;5054829;28;20513;-73
2023/05/30 12:21:14;;;;;;;0.60;0.60;;;14.80;99.90;;;;;;5058651;28;20123;-74
2023/05/30 12:23:41;;;;;;;0.57;0.57;;;14.90;99.90;;;;;;5056332;28;20037;-73
2023/05/30 12:26:06;;;;;;;0.30;0.30;;;14.90;99.90;;;;;;5050631;28;20049;-73
2023/05/30 12:28:33;;;;;;;0.35;0.35;;;14.90;99.90;;;;;;5054635;28;20413;-73
2023/05/30 12:30:59;;;;;;;0.40;0.40;;;15.10;99.90;;;;;;5057181;28;20435;-73
2023/05/30 12:33:30;;;;;;;0.47;0.47;;;15.10;99.90;;;;;;5051908;28;20147;-74
2023/05/30 12:35:56;;;;;;;2.15;0.82;;;15.30;99.90;;;;;;5051065;28;20045;-73
2023/05/30 12:38:23;;;;;;;0.40;0.40;;;15.30;99.90;;;;;;5050948;28;20045;-73
2023/05/30 12:40:50;;;;;;;0.73;0.73;;;15.40;99.90;;;;;;5047585;28;21007;-73
2023/05/30 12:43:25;;;;;;;0.50;0.50;;;15.60;99.90;;;;;;5058214;28;20049;-74
2023/05/30 12:45:51;;;;;;;0.68;0.68;;;15.70;99.90;;;;;;5047115;28;20136;-74
2023/05/30 12:48:16;;;;;;;0.93;0.93;;;15.80;99.90;;;;;;5049846;28;20041;-73
2023/05/30 12:50:42;;;;;;;0.70;0.70;;;15.90;99.90;;;;;;5056069;28;20037;-73
2023/05/30 12:53:08;;;;;;;0.22;0.22;;;15.90;99.90;;;;;;5050779;28;20120;-73